Terminal Aerodrome Forecast
Issued by NWS

Home | Current Version | Previous Version | Text Only | Print | Product List | Glossary On
Versions: 1 2 3 4 5 6 7 8 9 10 11 12 13 14 15 16 17 18 19 20 21
460
FTUS46 KSEW 102338
TAFBFI
TAF
KBFI 102338Z 1100/1124 18010G20KT P6SM -SHRA BKN025 OVC035
     FM110400 17010KT P6SM VCSH OVC022
     FM110900 16008KT P6SM OVC022
     FM111800 15008KT P6SM BKN030 OVC040=

USA.gov is the U.S. government's official web portal to all federal, state and local government web resources and services.